sensor_id;sensor_type;location;lat;lon;timestamp;pressure;altitude;pressure_sealevel;temperature;humidity
59315;BME280;46521;50.160;20.802;2023-06-04T00:13:16;100121.61;;;11.81;46.48
59315;BME280;46521;50.160;20.802;2023-06-04T00:23:17;100107.22;;;11.76;46.85
59315;BME280;46521;50.160;20.802;2023-06-04T00:33:19;100111.84;;;11.73;47.15
59315;BME280;46521;50.160;20.802;2023-06-04T00:43:21;100109.02;;;11.67;47.80
59315;BME280;46521;50.160;20.802;2023-06-04T00:53:26;100119.41;;;11.44;48.34
59315;BME280;46521;50.160;20.802;2023-06-04T01:03:29;100103.17;;;11.30;48.15
59315;BME280;46521;50.160;20.802;2023-06-04T01:13:33;100096.69;;;11.25;47.94
59315;BME280;46521;50.160;20.802;2023-06-04T01:33:40;100107.98;;;10.92;49.15
59315;BME280;46521;50.160;20.802;2023-06-04T01:43:41;100102.19;;;10.89;49.08
59315;BME280;46521;50.160;20.802;2023-06-04T01:53:43;100114.75;;;10.52;49.93
59315;BME280;46521;50.160;20.802;2023-06-04T02:03:44;100115.68;;;10.43;49.95
59315;BME280;46521;50.160;20.802;2023-06-04T02:13:46;100117.66;;;10.41;50.05
59315;BME280;46521;50.160;20.802;2023-06-04T02:23:48;100109.19;;;10.37;50.56
59315;BME280;46521;50.160;20.802;2023-06-04T02:33:49;100102.10;;;10.38;50.84
59315;BME280;46521;50.160;20.802;2023-06-04T02:43:51;100106.62;;;10.27;50.99
59315;BME280;46521;50.160;20.802;2023-06-04T02:53:52;100119.48;;;10.22;51.09
59315;BME280;46521;50.160;20.802;2023-06-04T03:03:54;100118.43;;;10.33;51.31
59315;BME280;46521;50.160;20.802;2023-06-04T03:13:56;100109.03;;;10.39;51.31
59315;BME280;46521;50.160;20.802;2023-06-04T03:23:58;100107.70;;;10.35;51.48
59315;BME280;46521;50.160;20.802;2023-06-04T03:33:59;100104.33;;;10.51;51.64
59315;BME280;46521;50.160;20.802;2023-06-04T03:44:01;100112.55;;;10.74;51.79
59315;BME280;46521;50.160;20.802;2023-06-04T03:54:03;100117.12;;;10.98;52.48
59315;BME280;46521;50.160;20.802;2023-06-04T04:04:05;100121.34;;;11.25;51.99
59315;BME280;46521;50.160;20.802;2023-06-04T04:14:06;100113.17;;;11.78;51.77
59315;BME280;46521;50.160;20.802;2023-06-04T04:24:08;100114.83;;;12.36;52.16
59315;BME280;46521;50.160;20.802;2023-06-04T04:34:10;100121.52;;;12.80;51.71
59315;BME280;46521;50.160;20.802;2023-06-04T04:44:12;100120.48;;;13.29;51.33
59315;BME280;46521;50.160;20.802;2023-06-04T04:54:13;100118.44;;;13.94;50.69
59315;BME280;46521;50.160;20.802;2023-06-04T05:04:15;100114.59;;;14.49;49.76
59315;BME280;46521;50.160;20.802;2023-06-04T05:14:17;100111.20;;;15.15;49.28
59315;BME280;46521;50.160;20.802;2023-06-04T05:24:18;100107.86;;;15.86;48.88
59315;BME280;46521;50.160;20.802;2023-06-04T05:34:20;100108.34;;;16.46;48.46
59315;BME280;46521;50.160;20.802;2023-06-04T05:44:22;100120.23;;;17.14;47.67
59315;BME280;46521;50.160;20.802;2023-06-04T05:54:24;100115.03;;;17.74;47.00
59315;BME280;46521;50.160;20.802;2023-06-04T06:04:25;100102.72;;;18.33;45.90
59315;BME280;46521;50.160;20.802;2023-06-04T06:14:27;100103.19;;;19.02;44.87
59315;BME280;46521;50.160;20.802;2023-06-04T06:24:29;100108.59;;;19.40;43.79
59315;BME280;46521;50.160;20.802;2023-06-04T06:34:30;100096.30;;;19.90;42.74
59315;BME280;46521;50.160;20.802;2023-06-04T06:44:32;100111.24;;;20.29;42.26
59315;BME280;46521;50.160;20.802;2023-06-04T06:54:34;100107.45;;;20.81;41.50
59315;BME280;46521;50.160;20.802;2023-06-04T07:04:35;100117.98;;;21.31;40.90
59315;BME280;46521;50.160;20.802;2023-06-04T07:14:37;100103.58;;;21.98;40.33
59315;BME280;46521;50.160;20.802;2023-06-04T07:24:38;100093.40;;;22.24;39.40
59315;BME280;46521;50.160;20.802;2023-06-04T07:34:40;100090.95;;;22.58;38.73
59315;BME280;46521;50.160;20.802;2023-06-04T07:44:42;100085.08;;;23.13;38.15
59315;BME280;46521;50.160;20.802;2023-06-04T07:54:43;100078.66;;;23.77;37.08
59315;BME280;46521;50.160;20.802;2023-06-04T08:04:45;100067.88;;;24.11;36.16
59315;BME280;46521;50.160;20.802;2023-06-04T08:14:47;100084.52;;;24.42;34.95
59315;BME280;46521;50.160;20.802;2023-06-04T08:24:48;100070.17;;;24.80;34.22
59315;BME280;46521;50.160;20.802;2023-06-04T08:34:50;100084.70;;;24.96;33.27
59315;BME280;46521;50.160;20.802;2023-06-04T08:44:51;100080.30;;;24.90;32.59
59315;BME280;46521;50.160;20.802;2023-06-04T08:54:56;100079.92;;;25.04;32.42
59315;BME280;46521;50.160;20.802;2023-06-04T09:04:59;100080.11;;;25.46;31.78
59315;BME280;46521;50.160;20.802;2023-06-04T09:15:03;100075.38;;;25.96;31.31
59315;BME280;46521;50.160;20.802;2023-06-04T09:25:06;100075.02;;;26.20;30.49
59315;BME280;46521;50.160;20.802;2023-06-04T09:35:15;100069.69;;;26.35;29.22
59315;BME280;46521;50.160;20.802;2023-06-04T09:45:30;100065.28;;;26.77;28.73
59315;BME280;46521;50.160;20.802;2023-06-04T09:55:32;100078.63;;;26.84;28.45
59315;BME280;46521;50.160;20.802;2023-06-04T10:05:34;100070.02;;;27.12;27.89
59315;BME280;46521;50.160;20.802;2023-06-04T10:15:37;100067.92;;;27.45;27.38
59315;BME280;46521;50.160;20.802;2023-06-04T10:25:38;100061.94;;;27.38;27.03
59315;BME280;46521;50.160;20.802;2023-06-04T10:35:40;100054.34;;;27.45;27.03
59315;BME280;46521;50.160;20.802;2023-06-04T10:45:42;100048.92;;;27.61;26.41
59315;BME280;46521;50.160;20.802;2023-06-04T10:55:45;100050.53;;;27.41;25.92
59315;BME280;46521;50.160;20.802;2023-06-04T11:05:47;100045.58;;;27.18;26.04
59315;BME280;46521;50.160;20.802;2023-06-04T11:15:49;100039.91;;;27.24;25.56
59315;BME280;46521;50.160;20.802;2023-06-04T11:25:52;100039.40;;;27.38;25.64
59315;BME280;46521;50.160;20.802;2023-06-04T11:35:54;100048.38;;;27.64;25.52
59315;BME280;46521;50.160;20.802;2023-06-04T11:45:56;100051.61;;;27.86;25.38
59315;BME280;46521;50.160;20.802;2023-06-04T11:55:58;100045.34;;;27.24;24.76
59315;BME280;46521;50.160;20.802;2023-06-04T12:06:15;100041.49;;;27.05;24.92
59315;BME280;46521;50.160;20.802;2023-06-04T12:16:17;100045.34;;;27.24;25.14
59315;BME280;46521;50.160;20.802;2023-06-04T12:26:22;100044.06;;;26.11;24.79
59315;BME280;46521;50.160;20.802;2023-06-04T12:36:31;100044.19;;;26.36;25.05
59315;BME280;46521;50.160;20.802;2023-06-04T12:46:34;100030.77;;;26.62;24.61
59315;BME280;46521;50.160;20.802;2023-06-04T12:56:36;100035.76;;;26.28;24.67
59315;BME280;46521;50.160;20.802;2023-06-04T13:06:38;100038.83;;;26.47;24.85
59315;BME280;46521;50.160;20.802;2023-06-04T13:16:39;100032.07;;;26.49;24.53
59315;BME280;46521;50.160;20.802;2023-06-04T13:26:41;100028.84;;;26.57;24.29
59315;BME280;46521;50.160;20.802;2023-06-04T13:36:43;100028.67;;;26.21;24.07
59315;BME280;46521;50.160;20.802;2023-06-04T13:46:45;100032.77;;;26.24;24.37
59315;BME280;46521;50.160;20.802;2023-06-04T13:56:48;100018.52;;;26.01;24.27
59315;BME280;46521;50.160;20.802;2023-06-04T14:06:49;100022.48;;;25.88;24.20
59315;BME280;46521;50.160;20.802;2023-06-04T14:16:51;100008.56;;;25.75;24.58
59315;BME280;46521;50.160;20.802;2023-06-04T14:26:55;100001.70;;;25.29;24.56
59315;BME280;46521;50.160;20.802;2023-06-04T14:36:56;99991.48;;;24.82;24.89
59315;BME280;46521;50.160;20.802;2023-06-04T14:47:00;99989.53;;;25.05;24.74
59315;BME280;46521;50.160;20.802;2023-06-04T14:57:02;99980.64;;;25.09;25.15
59315;BME280;46521;50.160;20.802;2023-06-04T15:07:04;99982.09;;;24.90;25.20
59315;BME280;46521;50.160;20.802;2023-06-04T15:17:06;99976.17;;;24.66;25.11
59315;BME280;46521;50.160;20.802;2023-06-04T15:27:07;99968.66;;;24.73;24.71
59315;BME280;46521;50.160;20.802;2023-06-04T15:37:09;99962.40;;;24.67;25.25
59315;BME280;46521;50.160;20.802;2023-06-04T15:47:11;99961.35;;;24.51;24.63
59315;BME280;46521;50.160;20.802;2023-06-04T15:57:12;99963.91;;;24.36;24.80
59315;BME280;46521;50.160;20.802;2023-06-04T16:07:14;99955.59;;;24.20;24.71
59315;BME280;46521;50.160;20.802;2023-06-04T16:17:15;99964.49;;;23.99;24.87
59315;BME280;46521;50.160;20.802;2023-06-04T16:27:17;99959.83;;;23.77;25.21
59315;BME280;46521;50.160;20.802;2023-06-04T16:37:18;99965.84;;;23.45;25.49
59315;BME280;46521;50.160;20.802;2023-06-04T16:47:20;99972.02;;;23.12;25.99
59315;BME280;46521;50.160;20.802;2023-06-04T16:57:22;99970.81;;;22.91;26.13
59315;BME280;46521;50.160;20.802;2023-06-04T17:07:23;99972.11;;;22.59;26.86
59315;BME280;46521;50.160;20.802;2023-06-04T17:17:25;99970.06;;;22.38;27.20
59315;BME280;46521;50.160;20.802;2023-06-04T17:27:27;99979.11;;;22.08;27.27
59315;BME280;46521;50.160;20.802;2023-06-04T17:37:28;99975.73;;;21.89;27.30
59315;BME280;46521;50.160;20.802;2023-06-04T17:47:30;99988.02;;;21.73;27.53
59315;BME280;46521;50.160;20.802;2023-06-04T17:57:31;99987.89;;;21.56;27.89
59315;BME280;46521;50.160;20.802;2023-06-04T18:07:33;99988.29;;;21.41;28.46
59315;BME280;46521;50.160;20.802;2023-06-04T18:17:35;100000.77;;;21.23;29.26
59315;BME280;46521;50.160;20.802;2023-06-04T18:27:37;100005.39;;;21.04;29.76
59315;BME280;46521;50.160;20.802;2023-06-04T18:37:40;100012.16;;;20.77;30.55
59315;BME280;46521;50.160;20.802;2023-06-04T18:47:42;100019.88;;;20.36;31.34
59315;BME280;46521;50.160;20.802;2023-06-04T18:57:44;100032.66;;;19.97;32.10
59315;BME280;46521;50.160;20.802;2023-06-04T19:07:45;100043.62;;;19.63;33.06
59315;BME280;46521;50.160;20.802;2023-06-04T19:17:47;100045.94;;;19.28;33.94
59315;BME280;46521;50.160;20.802;2023-06-04T19:27:49;100066.64;;;19.14;33.71
59315;BME280;46521;50.160;20.802;2023-06-04T19:37:54;100072.90;;;18.95;34.47
59315;BME280;46521;50.160;20.802;2023-06-04T19:47:56;100064.90;;;18.81;34.57
59315;BME280;46521;50.160;20.802;2023-06-04T19:57:59;100081.22;;;18.66;35.09
59315;BME280;46521;50.160;20.802;2023-06-04T20:08:01;100076.54;;;18.48;35.48
59315;BME280;46521;50.160;20.802;2023-06-04T20:18:02;100084.41;;;18.10;35.71
59315;BME280;46521;50.160;20.802;2023-06-04T20:28:04;100093.22;;;17.77;37.10
59315;BME280;46521;50.160;20.802;2023-06-04T20:38:06;100101.55;;;17.27;38.07
59315;BME280;46521;50.160;20.802;2023-06-04T20:48:07;100099.65;;;17.07;38.75
59315;BME280;46521;50.160;20.802;2023-06-04T20:58:09;100102.96;;;16.74;39.07
59315;BME280;46521;50.160;20.802;2023-06-04T21:08:11;100105.38;;;16.34;40.05
59315;BME280;46521;50.160;20.802;2023-06-04T21:18:14;100095.27;;;16.01;41.00
59315;BME280;46521;50.160;20.802;2023-06-04T21:28:16;100099.70;;;15.51;41.44
59315;BME280;46521;50.160;20.802;2023-06-04T21:38:18;100106.55;;;15.39;42.07
59315;BME280;46521;50.160;20.802;2023-06-04T21:48:19;100119.88;;;15.39;42.77
59315;BME280;46521;50.160;20.802;2023-06-04T21:58:21;100119.98;;;15.30;43.01
59315;BME280;46521;50.160;20.802;2023-06-04T22:08:22;100124.70;;;15.13;43.48
59315;BME280;46521;50.160;20.802;2023-06-04T22:18:24;100114.00;;;14.77;44.22
59315;BME280;46521;50.160;20.802;2023-06-04T22:28:25;100115.02;;;14.61;44.35
59315;BME280;46521;50.160;20.802;2023-06-04T22:38:27;100117.84;;;14.21;44.96
59315;BME280;46521;50.160;20.802;2023-06-04T22:48:29;100120.52;;;14.21;45.31
59315;BME280;46521;50.160;20.802;2023-06-04T22:58:30;100133.44;;;13.86;45.88
59315;BME280;46521;50.160;20.802;2023-06-04T23:08:32;100131.83;;;13.54;46.44
59315;BME280;46521;50.160;20.802;2023-06-04T23:18:33;100143.67;;;13.75;46.50
59315;BME280;46521;50.160;20.802;2023-06-04T23:28:35;100140.70;;;13.93;46.90
59315;BME280;46521;50.160;20.802;2023-06-04T23:38:36;100130.31;;;14.06;46.87
59315;BME280;46521;50.160;20.802;2023-06-04T23:48:38;100132.26;;;14.12;46.95
